Time;durP1;ratioP1;P1;durP2;ratioP2;P2;SDS_P1;SDS_P2;PMS_P1;PMS_P2;Temp;Humidity;BMP_temperature;BMP_pressure;BME280_temperature;BME280_humidity;BME280_pressure;Samples;Min_cycle;Max_cycle;Signal;HPM_P1;HPM_P2
2022/11/11 00:01:31;;;;;;;9.73;4.50;;;12.80;95.60;;;;;;5063457;28;20043;-80
2022/11/11 00:03:57;;;;;;;7.47;3.90;;;12.80;95.60;;;;;;5056660;28;20028;-78
2022/11/11 00:06:22;;;;;;;7.95;4.28;;;12.80;95.60;;;;;;5074241;28;20012;-79
2022/11/11 00:08:48;;;;;;;8.77;4.30;;;12.80;95.60;;;;;;5056523;28;20077;-78
2022/11/11 00:11:15;;;;;;;7.38;3.83;;;12.80;95.60;;;;;;5058414;28;20088;-77
2022/11/11 00:13:42;;;;;;;9.65;4.68;;;12.80;95.60;;;;;;5069106;28;20095;-78
2022/11/11 00:16:17;;;;;;;10.77;4.55;;;12.80;95.60;;;;;;5056640;28;20501;-80
2022/11/11 00:27:09;;;;;;;8.40;3.70;;;12.80;95.40;;;;;;5047091;28;20121;-77
2022/11/11 00:29:36;;;;;;;7.97;4.15;;;12.80;95.60;;;;;;5073428;28;20035;-78
2022/11/11 00:37:31;;;;;;;6.45;3.45;;;12.70;95.60;;;;;;5070228;28;20085;-78
2022/11/11 00:39:57;;;;;;;7.03;3.33;;;12.70;95.70;;;;;;5046675;28;20020;-78
2022/11/11 00:42:23;;;;;;;7.47;3.60;;;12.70;95.90;;;;;;5060799;28;20017;-79
2022/11/11 00:44:49;;;;;;;6.25;3.25;;;12.70;96.20;;;;;;5054912;28;20044;-80
2022/11/11 00:52:46;;;;;;;6.68;3.47;;;12.70;95.90;;;;;;5070630;28;20019;-78
2022/11/11 00:55:13;;;;;;;6.28;3.33;;;12.70;95.90;;;;;;5066457;28;20052;-79
2022/11/11 00:57:39;;;;;;;8.75;3.88;;;12.70;96.00;;;;;;5048041;28;20428;-79
2022/11/11 01:00:05;;;;;;;7.77;4.30;;;12.70;96.00;;;;;;5071348;28;20005;-80
2022/11/11 01:02:30;;;;;;;7.45;4.05;;;12.70;96.10;;;;;;5070303;28;20009;-79
2022/11/11 01:04:56;;;;;;;6.50;3.70;;;12.70;96.10;;;;;;5048137;28;20020;-79
2022/11/11 01:07:22;;;;;;;7.90;4.22;;;12.80;96.10;;;;;;5065354;28;20055;-79
2022/11/11 01:09:47;;;;;;;7.10;3.50;;;12.80;96.00;;;;;;5072164;28;20347;-79
2022/11/11 01:12:13;;;;;;;7.00;3.73;;;12.80;96.10;;;;;;5047178;28;20368;-79
2022/11/11 01:14:39;;;;;;;7.63;3.70;;;12.80;96.10;;;;;;5070561;28;20480;-78
2022/11/11 01:17:05;;;;;;;6.60;3.67;;;12.80;96.10;;;;;;5063890;28;20144;-79
2022/11/11 01:19:31;;;;;;;6.03;3.85;;;12.80;96.10;;;;;;5061805;28;20107;-79
2022/11/11 01:21:57;;;;;;;6.33;3.60;;;12.80;96.10;;;;;;5040255;28;20107;-79
2022/11/11 01:24:23;;;;;;;6.90;3.85;;;12.80;96.10;;;;;;5064519;28;20407;-79
2022/11/11 01:26:48;;;;;;;6.93;3.58;;;12.80;96.20;;;;;;5065780;28;20028;-80
2022/11/11 01:29:16;;;;;;;6.57;3.67;;;12.80;96.20;;;;;;5041839;28;20240;-80
2022/11/11 01:31:41;;;;;;;5.38;3.05;;;12.80;96.20;;;;;;5067225;28;20028;-78
2022/11/11 01:34:08;;;;;;;7.07;3.55;;;12.80;96.20;;;;;;5063711;28;20513;-80
2022/11/11 01:36:34;;;;;;;5.90;3.30;;;12.80;96.10;;;;;;5058494;28;20096;-79
2022/11/11 01:39:00;;;;;;;7.32;3.63;;;12.80;96.20;;;;;;5067343;28;20024;-80
2022/11/11 01:41:37;;;;;;;8.00;3.90;;;12.80;96.20;;;;;;5068180;28;20027;-79
2022/11/11 01:44:18;;;;;;;6.53;3.40;;;12.80;96.10;;;;;;5044946;28;20306;-79
2022/11/11 01:47:02;;;;;;;6.15;3.40;;;12.80;96.00;;;;;;5067333;28;20028;-79
2022/11/11 01:49:40;;;;;;;6.35;3.00;;;12.80;96.10;;;;;;5069019;28;20036;-79
2022/11/11 01:52:08;;;;;;;5.13;2.88;;;12.80;96.30;;;;;;5047091;28;20028;-79
2022/11/11 01:54:40;;;;;;;5.90;2.95;;;12.80;96.20;;;;;;5071611;28;20059;-78
2022/11/11 01:57:30;;;;;;;8.97;4.10;;;12.80;96.30;;;;;;5064822;28;20240;-80
2022/11/11 02:00:03;;;;;;;4.85;3.00;;;12.80;95.90;;;;;;5028960;28;20396;-78
2022/11/11 02:02:42;;;;;;;6.40;3.20;;;12.80;96.10;;;;;;5068237;28;20334;-80
2022/11/11 02:07:58;;;;;;;6.13;3.10;;;12.80;96.20;;;;;;5058226;28;20511;-80
2022/11/11 02:10:26;;;;;;;5.63;2.93;;;12.80;96.30;;;;;;5062827;28;20426;-80
2022/11/11 02:15:37;;;;;;;5.78;3.20;;;12.80;96.40;;;;;;5045363;28;20426;-81
2022/11/11 02:18:04;;;;;;;6.97;2.95;;;12.80;96.40;;;;;;5068399;28;20025;-81
2022/11/11 02:20:34;;;;;;;5.25;3.15;;;12.80;96.40;;;;;;5049322;28;20497;-81
2022/11/11 02:23:06;;;;;;;5.40;2.83;;;12.80;96.40;;;;;;5050238;28;20016;-80
2022/11/11 02:25:32;;;;;;;6.53;3.33;;;12.80;96.50;;;;;;5089227;28;20147;-81
2022/11/11 02:28:02;;;;;;;6.15;3.28;;;12.80;96.80;;;;;;5063733;28;20439;-81
2022/11/11 02:30:28;;;;;;;7.00;3.17;;;12.80;96.40;;;;;;5051486;28;20124;-81
2022/11/11 02:32:53;;;;;;;7.20;3.73;;;12.80;96.50;;;;;;5052786;28;20106;-80
2022/11/11 02:35:28;;;;;;;7.20;3.63;;;12.80;96.50;;;;;;5060087;28;20031;-80
2022/11/11 02:37:53;;;;;;;8.50;3.90;;;12.80;96.50;;;;;;5056140;28;20024;-82
2022/11/11 02:40:32;;;;;;;7.13;4.15;;;12.80;96.50;;;;;;5035739;28;20021;-81
2022/11/11 02:42:58;;;;;;;7.22;4.13;;;12.80;96.30;;;;;;5064319;28;20501;-80
2022/11/11 02:45:24;;;;;;;7.30;3.90;;;12.80;96.50;;;;;;5064817;28;20111;-80
2022/11/11 02:47:49;;;;;;;8.27;4.20;;;12.80;96.50;;;;;;5032870;28;20099;-80
2022/11/11 02:50:15;;;;;;;7.23;4.00;;;12.80;96.50;;;;;;5064784;28;20083;-82
2022/11/11 02:52:41;;;;;;;7.40;4.15;;;12.80;96.50;;;;;;5044724;28;20542;-80
2022/11/11 02:55:07;;;;;;;7.13;4.27;;;12.80;96.50;;;;;;5052792;28;20051;-80
2022/11/11 02:57:33;;;;;;;7.57;4.00;;;12.80;96.50;;;;;;5068074;28;20877;-80
2022/11/11 02:59:59;;;;;;;7.05;3.60;;;12.80;96.50;;;;;;5064908;28;20024;-80
2022/11/11 03:02:26;;;;;;;7.07;3.92;;;12.80;96.40;;;;;;5035174;28;20036;-82
2022/11/11 03:04:56;;;;;;;6.50;3.70;;;12.80;96.50;;;;;;5066270;28;20020;-81
2022/11/11 03:07:23;;;;;;;6.40;3.55;;;12.70;96.30;;;;;;5063095;28;20032;-80
2022/11/11 03:09:49;;;;;;;6.77;4.00;;;12.70;96.80;;;;;;5034690;28;20028;-80
2022/11/11 03:12:16;;;;;;;7.28;3.83;;;12.80;96.70;;;;;;5063591;28;20231;-81
2022/11/11 03:14:42;;;;;;;6.22;3.42;;;12.70;96.50;;;;;;5061339;28;20029;-80
2022/11/11 03:21:03;;;;;;;6.50;3.05;;;12.70;96.40;;;;;;5046976;28;20492;-80
2022/11/11 03:22:37;;;;;;;6.00;3.23;;;12.70;96.40;;;;;;5068069;28;20023;-81
2022/11/11 03:27:47;;;;;;;4.78;2.78;;;12.70;96.40;;;;;;5051571;28;20389;-81
2022/11/11 03:30:13;;;;;;;6.23;2.90;;;12.70;96.50;;;;;;5047176;28;20221;-81
2022/11/11 03:32:39;;;;;;;4.93;2.77;;;12.70;96.50;;;;;;5075157;28;20032;-81
2022/11/11 03:35:04;;;;;;;4.75;2.65;;;12.70;96.50;;;;;;5031763;28;20240;-81
2022/11/11 03:40:14;;;;;;;5.38;2.88;;;12.60;96.50;;;;;;5053627;28;20362;-81
2022/11/11 03:42:42;;;;;;;4.55;2.42;;;12.60;96.40;;;;;;5041696;28;20472;-80
2022/11/11 03:45:08;;;;;;;4.83;2.73;;;12.60;96.50;;;;;;5064626;28;20412;-81
2022/11/11 03:47:33;;;;;;;4.80;2.63;;;12.60;96.50;;;;;;5069483;28;20020;-81
2022/11/11 03:49:59;;;;;;;4.88;2.47;;;12.60;96.50;;;;;;5025784;28;20028;-82
2022/11/11 03:52:24;;;;;;;3.97;2.20;;;12.60;96.50;;;;;;5067008;28;20028;-80
2022/11/11 03:54:50;;;;;;;4.30;2.53;;;12.60;96.50;;;;;;5060102;28;20113;-80
2022/11/11 03:57:31;;;;;;;4.22;2.22;;;12.60;96.50;;;;;;5044810;28;21297;-81
2022/11/11 03:59:56;;;;;;;5.85;2.60;;;12.50;96.50;;;;;;5063860;28;20040;-81
2022/11/11 04:10:35;;;;;;;4.22;2.35;;;12.50;96.60;;;;;;5062880;28;20039;-80
2022/11/11 04:16:06;;;;;;;5.05;2.55;;;12.40;96.60;;;;;;5028787;28;20127;-80
2022/11/11 04:24:01;;;;;;;4.13;2.40;;;12.40;96.60;;;;;;5065596;28;20659;-80
2022/11/11 04:26:26;;;;;;;4.25;2.67;;;12.40;96.60;;;;;;5066119;28;20025;-80
2022/11/11 04:32:34;;;;;;;5.00;2.57;;;12.40;96.60;;;;;;5066762;28;20030;-81
2022/11/11 04:34:22;;;;;;;4.88;2.33;;;12.40;96.60;;;;;;5069515;28;20363;-81
2022/11/11 04:36:48;;;;;;;6.07;2.72;;;12.40;96.60;;;;;;5051311;28;20028;-80
2022/11/11 04:41:58;;;;;;;4.18;2.38;;;12.40;96.60;;;;;;5063943;28;20035;-81
2022/11/11 04:47:07;;;;;;;3.85;2.35;;;12.30;96.50;;;;;;5063701;28;20024;-81
2022/11/11 04:49:33;;;;;;;4.93;2.60;;;12.30;96.50;;;;;;5051553;28;20057;-81
2022/11/11 04:57:27;;;;;;;3.23;2.10;;;12.20;96.20;;;;;;5057568;28;20556;-81
2022/11/11 04:59:52;;;;;;;3.72;2.40;;;12.20;96.10;;;;;;5058820;28;20031;-81
2022/11/11 05:05:09;;;;;;;5.25;2.00;;;12.10;96.00;;;;;;5055543;28;20128;-81
2022/11/11 05:10:19;;;;;;;3.97;2.60;;;12.00;95.90;;;;;;5066801;28;20071;-81
2022/11/11 05:12:46;;;;;;;3.53;2.10;;;11.90;95.90;;;;;;5058245;28;20576;-81
2022/11/11 05:25:24;;;;;;;3.28;2.20;;;11.70;96.20;;;;;;5069468;28;20051;-80
2022/11/11 05:26:10;;;;;;;3.35;2.15;;;11.70;96.30;;;;;;5074462;28;20028;-80
2022/11/11 05:28:36;;;;;;;4.10;2.17;;;11.60;96.30;;;;;;5056776;28;20411;-81
2022/11/11 05:31:01;;;;;;;4.97;2.23;;;11.60;96.30;;;;;;5057694;28;20221;-81
2022/11/11 05:33:27;;;;;;;3.97;2.20;;;11.60;96.30;;;;;;5071619;28;20073;-81
2022/11/11 05:35:53;;;;;;;5.23;2.60;;;11.50;96.20;;;;;;5067106;28;20204;-81
2022/11/11 05:38:21;;;;;;;4.20;2.33;;;11.50;96.20;;;;;;5073476;28;20024;-81
2022/11/11 05:40:46;;;;;;;3.00;1.80;;;11.50;96.10;;;;;;5045825;28;20538;-81
2022/11/11 05:43:12;;;;;;;3.83;2.10;;;11.50;96.10;;;;;;5060447;28;20073;-80
2022/11/11 05:45:41;;;;;;;4.10;2.27;;;11.40;96.00;;;;;;5058324;28;20396;-80
2022/11/11 05:48:06;;;;;;;3.67;1.90;;;11.40;96.00;;;;;;5067000;28;20027;-80
2022/11/11 05:50:32;;;;;;;3.33;1.97;;;11.30;95.90;;;;;;5040203;28;20044;-80
2022/11/11 05:52:58;;;;;;;3.17;1.65;;;11.30;95.90;;;;;;5063011;28;20616;-80
2022/11/11 05:55:23;;;;;;;3.10;1.87;;;11.20;95.80;;;;;;5031542;28;20533;-80
2022/11/11 05:57:49;;;;;;;2.80;1.70;;;11.20;95.80;;;;;;5057375;28;20016;-80
2022/11/11 06:00:15;;;;;;;3.03;1.70;;;11.20;95.80;;;;;;5063704;28;20286;-80
2022/11/11 06:02:41;;;;;;;3.35;1.95;;;11.10;95.70;;;;;;5016423;28;20403;-80
2022/11/11 06:05:07;;;;;;;2.80;1.70;;;11.10;95.80;;;;;;5067839;28;20028;-81
2022/11/11 06:07:36;;;;;;;4.40;2.17;;;11.00;95.80;;;;;;5074235;28;20066;-81
2022/11/11 06:10:47;;;;;;;3.75;2.15;;;11.00;95.90;;;;;;5038339;28;20089;-80
2022/11/11 06:15:34;;;;;;;2.77;1.77;;;10.90;96.00;;;;;;5063856;28;20085;-80
2022/11/11 06:18:00;;;;;;;3.75;2.00;;;10.90;96.00;;;;;;5041776;28;20055;-80
2022/11/11 06:20:26;;;;;;;2.55;1.80;;;10.90;96.00;;;;;;5060171;28;20638;-81
2022/11/11 06:22:57;;;;;;;3.40;1.80;;;10.80;96.00;;;;;;5065527;28;20023;-81
2022/11/11 06:28:12;;;;;;;2.73;1.80;;;10.70;96.00;;;;;;5057447;28;20494;-80
2022/11/11 06:30:38;;;;;;;4.30;2.00;;;10.70;96.00;;;;;;5053178;28;20221;-81
2022/11/11 06:33:06;;;;;;;3.45;1.88;;;10.70;96.00;;;;;;5044230;28;20091;-80
2022/11/11 06:35:35;;;;;;;4.47;2.13;;;10.60;96.00;;;;;;5060202;28;20507;-81
2022/11/11 06:38:05;;;;;;;3.10;1.90;;;10.60;96.00;;;;;;5049226;28;20443;-80
2022/11/11 06:40:32;;;;;;;3.63;2.05;;;10.50;96.00;;;;;;5062717;28;20017;-81
2022/11/11 06:42:58;;;;;;;4.22;2.03;;;10.50;96.00;;;;;;5043692;28;20020;-81
2022/11/11 06:45:26;;;;;;;3.75;2.00;;;10.50;96.10;;;;;;5057025;28;20136;-80
2022/11/11 06:47:52;;;;;;;5.30;2.07;;;10.50;96.20;;;;;;5054885;28;20146;-81
2022/11/11 06:50:18;;;;;;;3.83;2.03;;;10.50;96.20;;;;;;5046266;28;20654;-81
2022/11/11 06:52:44;;;;;;;4.25;2.15;;;10.50;96.20;;;;;;5062719;28;20105;-80
2022/11/11 06:55:10;;;;;;;3.90;2.20;;;10.40;96.20;;;;;;5052151;28;20144;-81
2022/11/11 06:57:35;;;;;;;4.18;2.17;;;10.40;96.60;;;;;;5045663;28;20040;-81
2022/11/11 07:00:03;;;;;;;4.20;2.30;;;10.40;96.20;;;;;;5046881;28;20384;-81
2022/11/11 07:02:28;;;;;;;4.23;2.20;;;10.30;96.30;;;;;;5061256;28;20562;-81
2022/11/11 07:04:54;;;;;;;4.32;2.03;;;10.40;96.40;;;;;;5038041;28;20173;-80
2022/11/11 07:07:20;;;;;;;4.20;2.43;;;10.40;96.40;;;;;;5048343;28;20328;-81
2022/11/11 07:09:45;;;;;;;3.87;2.13;;;10.30;96.50;;;;;;5036329;28;20029;-81
2022/11/11 07:12:11;;;;;;;4.57;2.30;;;10.30;96.50;;;;;;5044808;28;20312;-80
2022/11/11 07:14:36;;;;;;;4.37;2.33;;;10.30;96.60;;;;;;5064508;28;20358;-80
2022/11/11 07:17:02;;;;;;;3.72;2.13;;;10.30;96.70;;;;;;5057325;28;20028;-80
2022/11/11 07:19:27;;;;;;;3.77;2.17;;;10.30;96.70;;;;;;5047442;28;20615;-81
2022/11/11 07:21:53;;;;;;;4.97;2.58;;;10.30;96.80;;;;;;5066479;28;20024;-81
2022/11/11 07:24:19;;;;;;;3.77;2.43;;;10.30;96.80;;;;;;5059475;28;20301;-80
2022/11/11 07:26:45;;;;;;;5.57;2.50;;;10.40;96.90;;;;;;5055679;28;20099;-81
2022/11/11 07:29:13;;;;;;;4.93;2.87;;;10.40;97.00;;;;;;5042612;28;20031;-80
2022/11/11 07:31:38;;;;;;;4.47;2.67;;;10.30;97.10;;;;;;5029518;28;20523;-82
2022/11/11 07:34:04;;;;;;;5.68;2.90;;;10.40;97.10;;;;;;5070272;28;20054;-81
2022/11/11 07:36:30;;;;;;;4.90;2.73;;;10.40;97.30;;;;;;5032726;28;20032;-80
2022/11/11 07:38:55;;;;;;;4.37;2.43;;;10.40;97.30;;;;;;5064928;28;20119;-81
2022/11/11 07:41:21;;;;;;;5.03;2.80;;;10.50;97.40;;;;;;5052615;28;20032;-81
2022/11/11 07:43:47;;;;;;;6.10;3.38;;;10.50;97.50;;;;;;5040758;28;20223;-79
2022/11/11 07:46:12;;;;;;;6.20;3.20;;;10.50;97.60;;;;;;5041319;28;20037;-81
2022/11/11 07:48:38;;;;;;;6.70;3.33;;;10.60;97.70;;;;;;5039284;28;20703;-82
2022/11/11 07:51:05;;;;;;;6.70;3.50;;;10.60;97.80;;;;;;5044092;28;20043;-80
2022/11/11 07:53:30;;;;;;;5.53;3.13;;;10.70;97.90;;;;;;5060076;28;20125;-80
2022/11/11 07:55:56;;;;;;;5.97;3.10;;;10.70;97.90;;;;;;5061012;28;20070;-80
2022/11/11 07:58:22;;;;;;;6.10;3.10;;;10.80;98.00;;;;;;5046376;28;20425;-79
2022/11/11 08:00:47;;;;;;;5.00;2.90;;;10.80;98.10;;;;;;5042000;28;20524;-81
2022/11/11 08:03:13;;;;;;;7.03;3.40;;;10.80;98.10;;;;;;5060160;28;20024;-81
2022/11/11 08:05:38;;;;;;;6.03;3.60;;;10.90;98.10;;;;;;5064945;28;20244;-81
2022/11/11 08:08:06;;;;;;;5.77;3.50;;;10.90;98.10;;;;;;5050448;28;20032;-80
2022/11/11 08:10:32;;;;;;;5.65;3.15;;;11.00;98.10;;;;;;5069633;28;20035;-80
2022/11/11 08:15:42;;;;;;;4.93;2.90;;;11.00;98.10;;;;;;5029940;28;20288;-82
2022/11/11 08:18:08;;;;;;;7.70;3.27;;;11.10;98.20;;;;;;5061562;28;20758;-82
2022/11/11 08:20:34;;;;;;;5.80;3.28;;;11.10;98.20;;;;;;5067318;28;20119;-82
2022/11/11 08:23:03;;;;;;;4.82;2.70;;;11.20;98.20;;;;;;5040099;28;20094;-83
2022/11/11 08:25:29;;;;;;;5.30;3.10;;;11.20;98.20;;;;;;5052289;28;20453;-82
2022/11/11 08:27:59;;;;;;;5.63;3.22;;;11.20;98.20;;;;;;5072721;27;20028;-82
2022/11/11 08:30:25;;;;;;;5.22;2.85;;;11.30;98.30;;;;;;5042021;28;20239;-81
2022/11/11 08:33:05;;;;;;;6.07;3.13;;;11.30;98.30;;;;;;5040925;28;20491;-81
2022/11/11 08:35:31;;;;;;;4.88;2.72;;;11.30;98.20;;;;;;5062922;28;20035;-81
2022/11/11 08:38:01;;;;;;;5.43;2.90;;;11.40;98.30;;;;;;5029275;28;20151;-81
2022/11/11 08:40:26;;;;;;;5.07;2.72;;;11.50;98.40;;;;;;5049409;28;20029;-82
2022/11/11 08:42:56;;;;;;;5.17;2.77;;;11.50;98.50;;;;;;5053985;28;20462;-82
2022/11/11 08:45:22;;;;;;;5.05;3.03;;;11.60;98.60;;;;;;5048925;28;20104;-82
2022/11/11 08:47:48;;;;;;;5.38;2.95;;;11.60;98.60;;;;;;5039326;28;20031;-82
2022/11/11 08:50:14;;;;;;;7.57;3.03;;;11.60;98.60;;;;;;5046944;28;20255;-83
2022/11/11 08:52:48;;;;;;;6.45;3.00;;;11.70;98.70;;;;;;5068635;28;20500;-83
2022/11/11 08:55:14;;;;;;;5.45;2.75;;;11.80;98.70;;;;;;5034836;28;20199;-82
2022/11/11 08:57:40;;;;;;;5.50;2.90;;;11.90;98.80;;;;;;5066309;28;20024;-82
2022/11/11 09:00:07;;;;;;;5.85;3.35;;;11.90;98.90;;;;;;5031640;28;20059;-82
2022/11/11 09:02:33;;;;;;;4.63;2.80;;;12.00;98.90;;;;;;5027623;28;20024;-84
2022/11/11 09:04:58;;;;;;;5.73;3.27;;;12.00;99.20;;;;;;5044347;28;20024;-81
2022/11/11 09:07:25;;;;;;;4.80;2.70;;;12.10;99.00;;;;;;5049797;28;20107;-83
2022/11/11 09:09:50;;;;;;;5.07;3.20;;;12.10;99.10;;;;;;5050230;28;20055;-82
2022/11/11 09:12:16;;;;;;;5.07;2.88;;;12.20;99.70;;;;;;5044276;28;20426;-81
2022/11/11 09:14:41;;;;;;;5.87;2.93;;;12.30;99.80;;;;;;5047251;28;20020;-82
2022/11/11 09:17:07;;;;;;;4.72;2.75;;;12.50;99.90;;;;;;5051618;28;20108;-83
2022/11/11 09:19:33;;;;;;;4.80;2.80;;;12.70;99.90;;;;;;5041936;28;20031;-83
2022/11/11 09:21:59;;;;;;;4.95;2.78;;;13.00;99.90;;;;;;5070156;28;20382;-80
2022/11/11 09:24:24;;;;;;;4.93;2.77;;;13.40;99.90;;;;;;5056329;28;20276;-80
2022/11/11 09:26:51;;;;;;;6.43;3.10;;;13.80;99.90;;;;;;5052674;28;20959;-80
2022/11/11 09:29:17;;;;;;;4.38;3.08;;;14.10;99.90;;;;;;5067482;28;20017;-80
2022/11/11 09:31:43;;;;;;;4.90;3.13;;;14.60;99.90;;;;;;5015507;28;20122;-81
2022/11/11 09:34:09;;;;;;;4.83;3.20;;;15.00;99.90;;;;;;5039578;28;20016;-80
2022/11/11 09:36:35;;;;;;;4.18;2.83;;;15.40;99.90;;;;;;5045494;28;20020;-80
2022/11/11 09:39:00;;;;;;;5.27;2.77;;;15.80;99.90;;;;;;5066290;28;20078;-81
2022/11/11 09:41:48;;;;;;;4.85;2.88;;;16.20;99.90;;;;;;5045061;28;20048;-80
2022/11/11 09:44:49;;;;;;;4.57;2.70;;;16.60;99.90;;;;;;5056947;28;20060;-82
2022/11/11 09:47:24;;;;;;;5.32;2.63;;;17.00;99.90;;;;;;5047789;28;20052;-83
2022/11/11 09:50:00;;;;;;;4.35;2.60;;;17.40;99.90;;;;;;5071822;28;20020;-83
2022/11/11 09:52:39;;;;;;;4.20;2.50;;;17.70;99.60;;;;;;5054678;28;20020;-82
2022/11/11 09:55:07;;;;;;;3.65;2.50;;;18.00;99.90;;;;;;5064478;28;20958;-83
2022/11/11 09:57:42;;;;;;;5.00;2.90;;;18.40;99.90;;;;;;5040000;28;20484;-83
2022/11/11 10:00:22;;;;;;;4.07;2.60;;;18.60;99.20;;;;;;5051178;28;20231;-83
2022/11/11 10:02:53;;;;;;;3.97;2.60;;;18.90;98.50;;;;;;5041786;28;20054;-83
2022/11/11 10:05:31;;;;;;;3.75;2.15;;;19.10;98.40;;;;;;5065978;28;20347;-83
2022/11/11 10:08:05;;;;;;;3.88;2.50;;;19.40;98.70;;;;;;5052609;28;20624;-82
2022/11/11 10:10:45;;;;;;;4.13;2.30;;;19.60;97.50;;;;;;5046773;28;20082;-84
2022/11/11 10:13:19;;;;;;;4.43;2.40;;;19.80;96.60;;;;;;5056888;28;20251;-83
2022/11/11 10:15:52;;;;;;;3.78;2.20;;;20.00;97.20;;;;;;5075025;28;20469;-81
2022/11/11 10:18:26;;;;;;;3.38;2.03;;;20.20;96.70;;;;;;5016140;28;20016;-80
2022/11/11 10:20:55;;;;;;;2.75;2.10;;;20.50;96.30;;;;;;5041104;28;20024;-82
2022/11/11 10:23:29;;;;;;;3.57;2.20;;;20.70;97.90;;;;;;5060140;28;20429;-82
2022/11/11 10:25:59;;;;;;;3.60;2.10;;;20.90;96.20;;;;;;5023048;28;20123;-82
2022/11/11 10:28:29;;;;;;;2.88;1.90;;;21.00;97.20;;;;;;5053831;28;20013;-80
2022/11/11 10:30:55;;;;;;;4.50;2.10;;;21.20;97.00;;;;;;5055042;28;20032;-81
2022/11/11 10:33:45;;;;;;;3.60;2.15;;;21.50;97.60;;;;;;5064428;28;20504;-80
2022/11/11 10:36:17;;;;;;;3.20;2.00;;;21.80;96.30;;;;;;5051629;28;20717;-80
2022/11/11 10:38:46;;;;;;;2.67;1.95;;;22.10;96.40;;;;;;5056389;28;20024;-80
2022/11/11 10:41:18;;;;;;;2.60;1.92;;;22.30;97.00;;;;;;5065708;28;20033;-81
2022/11/11 10:43:46;;;;;;;3.35;1.73;;;22.60;95.50;;;;;;5053774;28;20335;-81
2022/11/11 10:46:23;;;;;;;2.40;1.75;;;22.80;96.40;;;;;;5061837;28;20021;-81
2022/11/11 10:49:13;;;;;;;4.43;2.00;;;23.00;95.10;;;;;;5069708;28;20025;-80
2022/11/11 10:52:07;;;;;;;2.47;1.75;;;23.10;94.40;;;;;;5043727;28;20193;-80
2022/11/11 10:54:40;;;;;;;2.42;1.63;;;23.30;93.40;;;;;;5057045;28;20032;-80
2022/11/11 10:57:32;;;;;;;2.85;1.55;;;23.40;92.90;;;;;;5061161;28;20063;-81
2022/11/11 11:00:05;;;;;;;2.55;1.60;;;23.50;92.50;;;;;;5038680;28;20332;-80
2022/11/11 11:02:40;;;;;;;1.90;1.33;;;23.60;92.70;;;;;;5066701;28;20048;-81
2022/11/11 11:05:12;;;;;;;1.92;1.20;;;23.70;92.40;;;;;;5044510;28;20226;-82
2022/11/11 11:07:47;;;;;;;3.00;1.55;;;23.80;93.80;;;;;;5062847;28;20020;-81
2022/11/11 11:10:25;;;;;;;2.95;1.50;;;23.90;91.90;;;;;;5061423;28;20332;-81
2022/11/11 11:12:53;;;;;;;2.58;1.50;;;24.00;92.50;;;;;;5055835;28;20471;-80
2022/11/11 11:15:26;;;;;;;1.87;1.40;;;24.10;93.80;;;;;;5068782;28;20069;-81
2022/11/11 11:18:12;;;;;;;2.63;1.45;;;24.20;91.40;;;;;;5062986;28;20024;-80
2022/11/11 11:20:37;;;;;;;2.15;1.40;;;24.30;90.00;;;;;;5060039;28;20025;-82
2022/11/11 11:23:03;;;;;;;2.03;1.40;;;24.50;93.20;;;;;;5052974;28;20690;-80
2022/11/11 11:25:34;;;;;;;2.03;1.30;;;24.60;93.30;;;;;;5060559;28;20119;-81
2022/11/11 11:28:11;;;;;;;2.17;1.63;;;24.70;93.00;;;;;;5053724;28;20502;-80
2022/11/11 11:30:37;;;;;;;1.38;1.15;;;24.80;88.90;;;;;;5047698;28;20043;-81
2022/11/11 11:33:06;;;;;;;1.80;1.30;;;24.90;92.60;;;;;;5038493;28;20447;-81
2022/11/11 11:35:44;;;;;;;1.77;1.30;;;25.00;92.00;;;;;;5064810;28;20538;-81
2022/11/11 11:38:12;;;;;;;1.80;1.33;;;25.20;92.40;;;;;;5062164;28;20141;-80
2022/11/11 11:40:52;;;;;;;2.25;1.40;;;25.30;91.50;;;;;;5058672;28;20027;-81
2022/11/11 11:43:32;;;;;;;1.10;1.00;;;25.30;88.60;;;;;;5040122;28;20028;-81
2022/11/11 11:46:00;;;;;;;1.83;1.10;;;25.40;87.20;;;;;;5063381;28;20492;-81
2022/11/11 11:48:38;;;;;;;1.87;1.10;;;25.30;90.00;;;;;;5049170;28;20049;-81
2022/11/11 11:51:25;;;;;;;1.77;1.17;;;25.20;82.70;;;;;;5059313;28;20675;-81
2022/11/11 11:54:16;;;;;;;1.27;1.10;;;25.10;87.70;;;;;;5026715;28;20128;-82
2022/11/11 11:56:47;;;;;;;1.98;1.10;;;25.10;89.50;;;;;;5053885;28;20025;-81
2022/11/11 11:59:21;;;;;;;1.92;1.17;;;25.00;88.50;;;;;;5054302;28;20054;-80
2022/11/11 12:02:04;;;;;;;1.37;0.90;;;24.80;85.60;;;;;;5069107;28;20093;-81
2022/11/11 12:04:51;;;;;;;1.30;1.13;;;24.80;86.50;;;;;;5071155;28;20020;-82
2022/11/11 12:07:36;;;;;;;1.70;1.00;;;24.70;83.90;;;;;;5050500;28;20028;-81
2022/11/11 12:10:07;;;;;;;1.48;1.05;;;24.50;83.80;;;;;;5071030;28;20101;-81
2022/11/11 12:12:56;;;;;;;1.20;1.00;;;24.40;86.20;;;;;;5056749;28;20036;-81
2022/11/11 12:15:37;;;;;;;1.10;0.83;;;24.20;82.10;;;;;;5045878;28;20016;-82
2022/11/11 12:18:34;;;;;;;1.83;0.90;;;24.00;84.50;;;;;;5061142;28;20222;-82
2022/11/11 12:21:12;;;;;;;2.30;1.00;;;23.90;82.50;;;;;;5050833;28;20239;-81
2022/11/11 12:23:41;;;;;;;1.25;0.80;;;23.70;83.40;;;;;;5045664;28;20024;-81
2022/11/11 12:26:28;;;;;;;1.25;1.10;;;23.60;85.20;;;;;;5062881;28;20234;-80
2022/11/11 12:29:32;;;;;;;1.33;0.83;;;23.60;82.20;;;;;;5051463;28;20676;-81
2022/11/11 12:32:06;;;;;;;1.42;0.82;;;23.60;83.10;;;;;;5035639;28;20233;-81
2022/11/11 12:34:50;;;;;;;1.10;0.93;;;23.70;84.70;;;;;;5052421;28;20602;-82
2022/11/11 12:37:42;;;;;;;1.30;0.98;;;23.70;83.20;;;;;;5063300;28;20240;-81
2022/11/11 12:40:19;;;;;;;1.33;0.95;;;23.60;82.70;;;;;;5048943;28;20692;-80
2022/11/11 12:43:09;;;;;;;1.03;0.80;;;23.60;82.70;;;;;;5050363;28;20032;-80
2022/11/11 12:45:47;;;;;;;1.05;0.90;;;23.50;82.00;;;;;;5065276;28;20463;-81
2022/11/11 12:48:33;;;;;;;1.67;0.93;;;23.50;83.00;;;;;;5062894;28;20119;-80
2022/11/11 12:51:07;;;;;;;1.10;0.80;;;23.50;81.80;;;;;;5071308;28;20023;-80
2022/11/11 12:54:05;;;;;;;1.33;0.80;;;23.40;83.50;;;;;;5047603;28;20054;-81
2022/11/11 12:56:54;;;;;;;1.33;0.90;;;23.40;81.40;;;;;;5068517;28;20518;-81
2022/11/11 12:59:38;;;;;;;1.33;0.80;;;23.40;83.10;;;;;;5068582;28;20039;-80
2022/11/11 13:02:34;;;;;;;1.52;0.82;;;23.40;85.00;;;;;;5042012;28;20034;-81
2022/11/11 13:05:11;;;;;;;1.08;0.88;;;23.30;80.70;;;;;;5052110;28;20328;-81
2022/11/11 13:08:05;;;;;;;1.23;0.80;;;23.30;84.60;;;;;;5074133;28;20021;-81
2022/11/11 13:10:31;;;;;;;1.70;0.80;;;23.20;80.20;;;;;;5049087;28;20051;-80
2022/11/11 13:13:21;;;;;;;0.90;0.70;;;23.20;84.30;;;;;;5056989;28;20553;-80
2022/11/11 13:15:48;;;;;;;1.25;0.80;;;23.20;80.00;;;;;;5061167;28;20040;-80
2022/11/11 13:18:23;;;;;;;1.37;0.60;;;23.10;83.50;;;;;;5056825;28;20051;-80
2022/11/11 13:20:59;;;;;;;2.05;0.80;;;23.10;82.30;;;;;;5060613;28;20451;-80
2022/11/11 13:23:25;;;;;;;1.33;0.90;;;23.10;81.90;;;;;;5067828;28;20431;-81
2022/11/11 13:26:00;;;;;;;0.90;0.77;;;23.10;84.80;;;;;;5034810;28;20028;-81
2022/11/11 13:28:36;;;;;;;0.73;0.73;;;23.10;83.10;;;;;;5069853;28;20428;-81
2022/11/11 13:31:14;;;;;;;1.40;0.80;;;23.20;82.20;;;;;;5058443;28;20757;-80
2022/11/11 13:33:49;;;;;;;1.27;0.75;;;23.20;81.20;;;;;;5052767;28;20503;-81
2022/11/11 13:36:19;;;;;;;1.42;0.65;;;23.30;82.80;;;;;;5056174;28;20051;-81
2022/11/11 13:38:50;;;;;;;1.75;0.90;;;23.30;83.50;;;;;;5038377;28;20392;-81
2022/11/11 13:41:24;;;;;;;2.25;0.90;;;23.30;82.90;;;;;;5051123;28;20020;-82
2022/11/11 13:43:52;;;;;;;1.20;0.87;;;23.20;81.00;;;;;;5061862;28;20024;-80
2022/11/11 13:46:30;;;;;;;1.55;0.95;;;23.20;82.50;;;;;;5060707;28;20077;-80
2022/11/11 13:48:56;;;;;;;1.63;0.80;;;23.10;79.60;;;;;;5057970;28;20039;-80
2022/11/11 13:51:40;;;;;;;1.52;0.85;;;23.10;83.30;;;;;;5063339;28;20035;-80
2022/11/11 13:54:36;;;;;;;1.85;0.80;;;23.00;81.60;;;;;;5067998;28;20547;-81
2022/11/11 13:57:14;;;;;;;2.03;0.80;;;23.00;80.20;;;;;;5052613;28;20248;-81
2022/11/11 13:59:48;;;;;;;0.88;0.75;;;23.00;80.90;;;;;;5074282;28;20017;-80
2022/11/11 14:02:19;;;;;;;0.98;0.60;;;22.90;81.70;;;;;;5065400;28;20364;-81
2022/11/11 14:05:00;;;;;;;1.25;0.75;;;22.80;80.30;;;;;;5051202;28;20063;-80
2022/11/11 14:07:47;;;;;;;2.25;0.93;;;22.70;78.70;;;;;;5069100;28;20028;-80
2022/11/11 14:10:16;;;;;;;1.03;0.67;;;22.60;78.80;;;;;;5031604;28;21570;-80
2022/11/11 14:12:55;;;;;;;1.27;1.00;;;22.50;80.50;;;;;;5068862;28;20115;-80
2022/11/11 14:15:43;;;;;;;1.67;0.80;;;22.40;78.70;;;;;;5043231;28;20028;-80
2022/11/11 14:18:18;;;;;;;0.82;0.70;;;22.30;78.80;;;;;;5067586;28;20748;-80
2022/11/11 14:20:44;;;;;;;2.08;0.80;;;22.20;79.40;;;;;;5054064;28;20064;-80
2022/11/11 14:23:39;;;;;;;1.13;0.80;;;22.10;80.90;;;;;;5068836;28;20217;-80
2022/11/11 14:26:05;;;;;;;1.75;0.80;;;22.00;78.20;;;;;;5042482;28;20342;-80
2022/11/11 14:28:40;;;;;;;1.83;0.90;;;21.80;80.70;;;;;;5065750;28;20040;-80
2022/11/11 14:31:12;;;;;;;1.10;0.80;;;21.70;78.90;;;;;;5037856;28;20297;-81
2022/11/11 14:33:44;;;;;;;1.45;0.80;;;21.50;78.90;;;;;;5065302;28;20025;-80